Time;durP1;ratioP1;P1;durP2;ratioP2;P2;SDS_P1;SDS_P2;PMS_P1;PMS_P2;Temp;Humidity;BMP_temperature;BMP_pressure;BME280_temperature;BME280_humidity;BME280_pressure;Samples;Min_cycle;Max_cycle;Signal;HPM_P1;HPM_P2
2023/03/24 00:01:15;;;;;;;4.57;4.37;;;12.10;99.90;;;;;;5051628;28;20191;-64
2023/03/24 00:03:44;;;;;;;4.77;4.53;;;12.10;99.90;;;;;;5042563;28;20193;-65
2023/03/24 00:06:12;;;;;;;5.00;4.80;;;12.10;99.90;;;;;;5031788;28;20172;-64
2023/03/24 00:08:40;;;;;;;4.63;4.43;;;12.10;99.90;;;;;;5040111;28;20233;-65
2023/03/24 00:11:08;;;;;;;4.60;4.40;;;12.10;99.90;;;;;;5020899;28;20184;-65
2023/03/24 00:13:37;;;;;;;5.23;4.80;;;12.20;99.90;;;;;;5039023;28;20185;-65
2023/03/24 00:16:14;;;;;;;5.00;4.63;;;12.20;99.90;;;;;;5051630;28;20178;-65
2023/03/24 00:18:40;;;;;;;4.80;4.60;;;12.20;99.90;;;;;;5043107;28;20305;-64
2023/03/24 00:21:07;;;;;;;5.17;4.80;;;12.20;99.90;;;;;;5031311;28;20194;-65
2023/03/24 00:23:34;;;;;;;5.67;4.97;;;12.20;99.90;;;;;;5037394;28;20210;-64
2023/03/24 00:26:03;;;;;;;5.03;4.73;;;12.30;99.90;;;;;;5051428;28;20178;-65
2023/03/24 00:28:33;;;;;;;4.80;4.50;;;12.30;99.90;;;;;;5045791;28;20207;-65
2023/03/24 00:31:00;;;;;;;4.77;4.57;;;12.30;99.90;;;;;;5031148;28;20191;-64
2023/03/24 00:33:27;;;;;;;5.40;5.10;;;12.40;99.90;;;;;;5035798;28;20774;-64
2023/03/24 00:35:53;;;;;;;5.53;5.17;;;12.40;99.90;;;;;;5051381;28;20174;-64
2023/03/24 00:38:19;;;;;;;6.30;6.00;;;12.40;99.90;;;;;;5049516;28;20214;-63
2023/03/24 00:40:47;;;;;;;5.90;5.60;;;12.50;99.90;;;;;;5050886;28;20171;-64
2023/03/24 00:43:13;;;;;;;5.87;5.57;;;12.50;99.90;;;;;;5047524;28;20176;-64
2023/03/24 00:45:45;;;;;;;6.00;5.60;;;12.50;99.90;;;;;;5031411;28;20266;-64
2023/03/24 00:48:16;;;;;;;6.67;6.27;;;12.50;99.90;;;;;;5034002;28;20172;-64
2023/03/24 00:50:47;;;;;;;5.43;5.13;;;12.50;99.90;;;;;;5050723;28;20695;-65
2023/03/24 00:53:17;;;;;;;5.60;5.20;;;12.50;99.90;;;;;;5048456;28;20228;-65
2023/03/24 00:55:49;;;;;;;6.13;5.63;;;12.50;99.90;;;;;;5031246;28;20175;-64
2023/03/24 00:58:18;;;;;;;5.83;5.53;;;12.40;99.90;;;;;;5033391;28;20217;-65
2023/03/24 01:00:51;;;;;;;5.83;5.53;;;12.40;99.90;;;;;;5051616;28;20174;-64
2023/03/24 01:03:20;;;;;;;6.00;5.63;;;12.40;99.90;;;;;;5053082;28;20671;-66
2023/03/24 01:05:47;;;;;;;6.10;5.80;;;12.40;99.90;;;;;;5035369;28;20179;-66
2023/03/24 01:08:14;;;;;;;6.70;6.30;;;12.40;99.90;;;;;;5055061;28;20167;-66
2023/03/24 01:10:49;;;;;;;6.30;5.90;;;12.40;99.90;;;;;;5054632;28;20663;-66
2023/03/24 01:13:15;;;;;;;6.63;6.23;;;12.40;99.90;;;;;;5015540;28;20183;-66
2023/03/24 01:15:41;;;;;;;6.43;6.13;;;12.50;99.90;;;;;;5014309;28;20563;-65
2023/03/24 01:18:08;;;;;;;6.77;6.37;;;12.50;99.90;;;;;;5051452;28;20233;-65
2023/03/24 01:20:35;;;;;;;6.23;5.93;;;12.50;99.90;;;;;;5053383;28;20171;-66
2023/03/24 01:23:04;;;;;;;6.10;5.80;;;12.60;99.90;;;;;;5036608;28;20439;-66
2023/03/24 01:25:29;;;;;;;5.53;5.30;;;12.60;99.90;;;;;;5034449;28;20252;-66
2023/03/24 01:27:55;;;;;;;5.50;5.10;;;12.70;99.90;;;;;;5050313;28;20518;-66
2023/03/24 01:30:24;;;;;;;5.87;5.43;;;12.70;99.90;;;;;;5054145;28;20198;-64
2023/03/24 01:32:51;;;;;;;5.83;5.53;;;12.80;99.90;;;;;;5042957;28;20657;-64
2023/03/24 01:35:18;;;;;;;6.10;5.73;;;12.80;99.90;;;;;;5034698;28;20278;-65
2023/03/24 01:37:44;;;;;;;5.97;5.57;;;12.90;99.90;;;;;;5034331;28;20179;-65
2023/03/24 01:40:17;;;;;;;5.60;5.20;;;12.90;99.90;;;;;;5034095;28;20211;-65
2023/03/24 01:42:42;;;;;;;5.30;4.90;;;12.90;99.90;;;;;;5046052;28;20778;-66
2023/03/24 01:45:39;;;;;;;5.30;5.00;;;12.90;99.90;;;;;;5054338;28;20209;-66
2023/03/24 01:48:22;;;;;;;5.53;5.23;;;12.80;99.90;;;;;;5039274;28;20187;-66
2023/03/24 01:51:00;;;;;;;6.37;5.87;;;12.70;99.90;;;;;;5033837;28;20629;-65
2023/03/24 01:53:28;;;;;;;5.17;4.87;;;12.70;99.90;;;;;;5051010;28;20237;-66
2023/03/24 01:55:54;;;;;;;5.23;4.90;;;12.70;99.90;;;;;;5054109;28;20177;-65
2023/03/24 01:58:24;;;;;;;5.97;5.63;;;12.60;99.90;;;;;;5038537;28;20731;-65
2023/03/24 02:00:50;;;;;;;5.73;5.50;;;12.60;99.90;;;;;;5044450;28;20267;-66
2023/03/24 02:03:19;;;;;;;5.23;5.03;;;12.60;99.90;;;;;;5053743;28;20174;-66
2023/03/24 02:05:48;;;;;;;6.70;6.30;;;12.60;99.90;;;;;;5042159;28;20206;-66
2023/03/24 02:09:00;;;;;;;5.43;5.13;;;12.70;99.90;;;;;;5035169;28;20183;-65
2023/03/24 02:11:29;;;;;;;5.93;5.53;;;12.70;99.90;;;;;;4953112;28;20182;-66
2023/03/24 02:13:55;;;;;;;5.80;5.50;;;12.70;99.90;;;;;;5008553;28;20214;-66
2023/03/24 02:16:37;;;;;;;5.37;4.97;;;12.80;99.90;;;;;;5053953;28;20175;-66
2023/03/24 02:19:25;;;;;;;5.60;5.30;;;12.80;99.90;;;;;;5049654;28;20290;-65
2023/03/24 02:22:21;;;;;;;5.60;5.30;;;12.80;99.90;;;;;;5033789;28;20179;-65
2023/03/24 02:25:09;;;;;;;5.17;4.97;;;12.90;99.90;;;;;;5042635;28;20253;-65
2023/03/24 02:27:59;;;;;;;5.47;5.10;;;13.00;99.90;;;;;;5052883;28;20171;-65
2023/03/24 02:30:47;;;;;;;5.90;5.60;;;13.00;99.90;;;;;;5033607;28;20172;-65
2023/03/24 02:33:34;;;;;;;5.40;5.10;;;13.10;99.90;;;;;;5038772;28;20199;-65
2023/03/24 02:36:35;;;;;;;5.70;5.50;;;13.20;99.90;;;;;;5053471;28;20181;-65
2023/03/24 02:39:20;;;;;;;5.63;5.23;;;13.30;99.90;;;;;;5041612;28;20211;-64
2023/03/24 02:42:01;;;;;;;5.67;5.37;;;13.40;99.90;;;;;;5015598;28;20176;-66
2023/03/24 02:44:54;;;;;;;5.53;5.23;;;13.50;99.90;;;;;;5034732;28;20198;-66
2023/03/24 02:47:56;;;;;;;7.50;6.97;;;13.60;99.90;;;;;;5033417;28;20233;-66
2023/03/24 02:50:56;;;;;;;6.63;6.30;;;13.70;99.90;;;;;;5013150;28;20203;-66
2023/03/24 02:53:43;;;;;;;5.63;5.33;;;13.80;99.90;;;;;;5027494;28;20658;-66
2023/03/24 02:56:54;;;;;;;7.13;6.83;;;13.90;99.90;;;;;;5047818;28;20291;-66
2023/03/24 02:59:49;;;;;;;8.03;7.63;;;14.00;99.90;;;;;;5005101;28;20227;-65
2023/03/24 03:02:22;;;;;;;7.90;7.40;;;14.00;99.90;;;;;;5046645;28;20210;-66
2023/03/24 03:04:59;;;;;;;6.80;6.40;;;14.00;99.90;;;;;;5052766;28;20201;-66
2023/03/24 03:07:28;;;;;;;5.70;5.30;;;14.10;99.90;;;;;;5038289;28;20183;-65
2023/03/24 03:10:06;;;;;;;5.40;5.00;;;14.10;99.90;;;;;;5032575;28;20265;-65
2023/03/24 03:12:36;;;;;;;5.90;5.60;;;14.20;99.90;;;;;;5047870;28;20182;-65
2023/03/24 03:15:11;;;;;;;7.20;6.70;;;14.20;99.90;;;;;;5052766;28;20210;-64
2023/03/24 03:17:47;;;;;;;4.90;4.70;;;14.30;99.90;;;;;;5037438;28;20555;-65
2023/03/24 03:20:17;;;;;;;7.33;6.93;;;14.40;99.90;;;;;;5014772;28;20203;-65
2023/03/24 03:22:55;;;;;;;6.47;6.07;;;14.40;99.90;;;;;;5047859;28;20265;-65
2023/03/24 03:25:25;;;;;;;5.57;5.33;;;14.50;99.90;;;;;;5041331;28;20258;-65
2023/03/24 03:27:53;;;;;;;6.13;5.70;;;14.50;99.90;;;;;;5032491;28;20184;-65
2023/03/24 03:30:38;;;;;;;5.10;4.80;;;14.50;99.90;;;;;;5042146;28;20695;-65
2023/03/24 03:33:29;;;;;;;6.07;5.67;;;14.50;99.90;;;;;;5052401;28;20743;-65
2023/03/24 03:36:07;;;;;;;5.73;5.43;;;14.50;99.90;;;;;;5037781;28;20199;-64
2023/03/24 03:38:42;;;;;;;5.03;4.73;;;14.50;99.90;;;;;;5032317;28;20221;-64
2023/03/24 03:41:08;;;;;;;5.70;5.40;;;14.50;99.90;;;;;;5047564;28;20520;-65
2023/03/24 03:43:34;;;;;;;6.43;6.13;;;14.50;99.90;;;;;;5034330;28;20590;-65
2023/03/24 03:45:59;;;;;;;6.53;6.17;;;14.50;99.90;;;;;;5038339;28;20187;-65
2023/03/24 03:48:26;;;;;;;6.87;6.37;;;14.50;99.90;;;;;;5032164;28;20218;-64
2023/03/24 03:50:54;;;;;;;6.43;6.03;;;14.50;99.90;;;;;;5048328;28;20190;-65
2023/03/24 03:53:25;;;;;;;5.50;5.20;;;14.50;99.90;;;;;;5051948;28;20171;-66
2023/03/24 03:55:51;;;;;;;5.80;5.40;;;14.50;99.90;;;;;;5035662;28;20187;-65
2023/03/24 03:58:16;;;;;;;5.37;5.07;;;14.50;99.90;;;;;;5031904;28;20652;-65
2023/03/24 04:00:45;;;;;;;4.70;4.40;;;14.50;99.90;;;;;;5045562;28;20190;-65
2023/03/24 04:03:26;;;;;;;6.17;5.83;;;14.50;99.90;;;;;;5052014;28;20193;-65
2023/03/24 04:06:18;;;;;;;5.37;5.10;;;14.60;99.90;;;;;;5036692;28;20179;-65
2023/03/24 04:09:09;;;;;;;5.53;5.23;;;14.50;99.90;;;;;;5031967;28;20244;-64
2023/03/24 04:11:45;;;;;;;4.83;4.53;;;14.60;99.90;;;;;;5052067;28;20221;-65
2023/03/24 04:14:38;;;;;;;7.20;6.80;;;14.60;99.90;;;;;;5040174;28;20191;-65
2023/03/24 04:17:41;;;;;;;5.50;5.10;;;14.60;99.90;;;;;;5033301;28;20583;-64
2023/03/24 04:20:26;;;;;;;5.20;4.90;;;14.60;99.90;;;;;;5029435;28;20322;-65
2023/03/24 04:23:17;;;;;;;5.63;5.33;;;14.60;99.90;;;;;;5043309;28;20187;-65
2023/03/24 04:26:02;;;;;;;5.20;4.93;;;14.50;99.90;;;;;;5031912;28;20182;-65
2023/03/24 04:28:47;;;;;;;4.53;4.33;;;14.50;99.90;;;;;;5043531;28;20198;-65
2023/03/24 04:31:28;;;;;;;5.27;4.97;;;14.50;99.90;;;;;;5050316;28;20177;-65
2023/03/24 04:34:12;;;;;;;8.53;4.60;;;14.40;99.90;;;;;;5036539;28;20258;-66
2023/03/24 04:36:44;;;;;;;5.10;4.80;;;14.30;99.90;;;;;;5030949;28;20187;-65
2023/03/24 04:39:13;;;;;;;4.67;4.43;;;14.20;99.90;;;;;;5074545;22;20231;-64
2023/03/24 04:41:41;;;;;;;13.73;13.13;;;13.90;99.90;;;;;;5030418;28;20163;-64
2023/03/24 04:44:09;;;;;;;5.13;4.93;;;13.70;99.90;;;;;;5032820;28;20229;-65
2023/03/24 04:46:35;;;;;;;5.53;5.23;;;13.40;99.90;;;;;;5031535;28;20518;-65
2023/03/24 04:49:01;;;;;;;5.43;5.13;;;13.20;99.90;;;;;;5044906;28;20207;-65
2023/03/24 04:51:27;;;;;;;6.00;5.70;;;13.00;99.90;;;;;;5050756;28;20198;-64
2023/03/24 04:53:53;;;;;;;5.47;5.10;;;13.00;99.90;;;;;;5038934;28;20218;-65
2023/03/24 04:56:37;;;;;;;5.73;5.37;;;12.90;99.90;;;;;;5031517;28;20179;-66
2023/03/24 04:59:03;;;;;;;6.70;6.40;;;12.80;99.90;;;;;;5043557;28;20206;-64
2023/03/24 05:01:29;;;;;;;5.73;5.43;;;12.70;99.90;;;;;;5051310;28;20521;-64
2023/03/24 05:03:58;;;;;;;5.57;5.37;;;12.70;99.90;;;;;;5039828;28;20511;-64
2023/03/24 05:06:25;;;;;;;6.20;5.80;;;12.70;99.90;;;;;;5030571;28;20535;-65
2023/03/24 05:08:51;;;;;;;5.50;5.20;;;12.60;99.90;;;;;;5040510;28;20269;-65
2023/03/24 05:11:18;;;;;;;4.77;4.57;;;12.50;99.90;;;;;;5045262;28;20171;-64
2023/03/24 05:13:45;;;;;;;5.27;4.97;;;12.50;99.90;;;;;;5031082;28;20577;-64
2023/03/24 05:16:11;;;;;;;6.47;6.17;;;12.40;99.90;;;;;;5034577;28;20178;-63
2023/03/24 05:18:36;;;;;;;5.80;5.20;;;12.30;99.90;;;;;;5050917;28;20578;-65
2023/03/24 05:21:02;;;;;;;5.30;5.10;;;12.20;99.90;;;;;;5047995;28;20187;-65
2023/03/24 05:23:28;;;;;;;5.77;5.40;;;12.20;99.90;;;;;;5031135;28;20175;-64
2023/03/24 05:25:53;;;;;;;5.07;4.77;;;12.10;99.90;;;;;;5031304;28;20633;-64
2023/03/24 05:28:19;;;;;;;5.47;5.27;;;12.10;99.90;;;;;;5050986;28;20194;-65
2023/03/24 05:30:45;;;;;;;7.40;7.10;;;12.10;99.90;;;;;;5051044;28;20167;-64
2023/03/24 05:33:11;;;;;;;5.10;4.90;;;12.10;99.90;;;;;;5032427;28;20637;-65
2023/03/24 05:35:36;;;;;;;5.20;4.70;;;12.00;99.90;;;;;;5031295;28;20168;-64
2023/03/24 05:38:02;;;;;;;4.80;4.60;;;11.90;99.90;;;;;;5043327;28;20669;-65
2023/03/24 05:40:27;;;;;;;6.17;5.23;;;11.90;99.90;;;;;;5030904;28;20206;-64
2023/03/24 05:42:53;;;;;;;6.37;6.07;;;11.90;99.90;;;;;;5030813;28;20492;-64
2023/03/24 05:45:19;;;;;;;6.60;6.30;;;11.80;99.90;;;;;;5031034;28;20195;-64
2023/03/24 05:47:45;;;;;;;6.03;5.53;;;11.80;99.90;;;;;;5027682;28;20640;-64
2023/03/24 05:50:11;;;;;;;8.83;8.43;;;11.80;99.90;;;;;;5054220;28;20199;-65
2023/03/24 05:52:37;;;;;;;8.43;8.03;;;11.80;99.90;;;;;;5025828;28;20710;-63
2023/03/24 05:55:02;;;;;;;7.50;7.10;;;11.70;99.90;;;;;;5034376;28;20179;-64
2023/03/24 05:57:29;;;;;;;6.23;4.50;;;11.70;99.90;;;;;;5042970;28;20635;-64
2023/03/24 05:59:55;;;;;;;4.73;4.33;;;11.70;99.90;;;;;;5053717;28;20202;-64
2023/03/24 06:02:21;;;;;;;4.10;3.90;;;11.60;99.90;;;;;;5046925;28;20172;-64
2023/03/24 06:04:47;;;;;;;4.60;4.40;;;11.60;99.90;;;;;;5037271;28;20582;-64
2023/03/24 06:07:14;;;;;;;6.73;6.23;;;11.50;99.90;;;;;;5054428;28;20171;-64
2023/03/24 06:09:45;;;;;;;6.10;5.50;;;11.50;99.90;;;;;;5035495;28;20564;-64
2023/03/24 06:12:12;;;;;;;4.77;4.47;;;11.40;99.90;;;;;;5033401;28;20257;-63
2023/03/24 06:14:39;;;;;;;5.97;5.67;;;11.30;99.90;;;;;;5051058;28;20262;-64
2023/03/24 06:17:07;;;;;;;6.53;6.13;;;11.20;99.90;;;;;;5053919;28;20225;-63
2023/03/24 06:19:33;;;;;;;5.47;5.07;;;11.20;99.90;;;;;;5038025;28;20268;-64
2023/03/24 06:22:01;;;;;;;5.13;4.83;;;11.10;99.90;;;;;;5015951;28;20167;-64
2023/03/24 06:24:28;;;;;;;5.30;5.00;;;11.10;99.90;;;;;;5048087;28;20182;-63
2023/03/24 06:27:00;;;;;;;5.40;5.10;;;11.10;99.90;;;;;;5053605;28;20202;-64
2023/03/24 06:29:28;;;;;;;5.70;5.07;;;11.10;99.90;;;;;;5040043;28;20334;-64
2023/03/24 06:31:53;;;;;;;5.77;5.30;;;11.10;99.90;;;;;;5033025;28;20167;-64
2023/03/24 06:34:21;;;;;;;5.33;5.03;;;11.00;99.90;;;;;;5049341;28;20654;-64
2023/03/24 06:36:46;;;;;;;5.40;5.10;;;10.90;99.90;;;;;;5053673;28;20189;-65
2023/03/24 06:39:12;;;;;;;7.20;6.70;;;10.90;99.90;;;;;;5038748;28;20290;-64
2023/03/24 06:41:38;;;;;;;6.53;6.23;;;10.80;99.90;;;;;;5033684;28;20168;-63
2023/03/24 06:44:03;;;;;;;7.87;6.90;;;10.80;99.90;;;;;;5045815;28;20198;-64
2023/03/24 06:46:29;;;;;;;5.50;5.00;;;10.80;99.90;;;;;;5053544;28;20213;-64
2023/03/24 06:48:55;;;;;;;4.80;4.60;;;10.80;99.90;;;;;;5042474;28;20203;-64
2023/03/24 06:51:20;;;;;;;5.33;5.00;;;10.80;99.90;;;;;;5033361;28;20176;-64
2023/03/24 06:53:46;;;;;;;6.40;6.10;;;10.80;99.90;;;;;;5041974;28;20185;-64
2023/03/24 06:56:19;;;;;;;10.57;5.33;;;10.80;99.90;;;;;;5053330;28;20181;-63
2023/03/24 06:58:46;;;;;;;6.10;5.63;;;10.80;99.90;;;;;;5050784;28;20202;-64
2023/03/24 07:01:13;;;;;;;6.73;6.13;;;10.80;99.90;;;;;;5052681;28;20549;-64
2023/03/24 07:03:40;;;;;;;5.67;5.07;;;10.80;99.90;;;;;;5046675;28;20187;-64
2023/03/24 07:06:06;;;;;;;5.83;5.53;;;10.70;99.90;;;;;;5020728;28;20278;-64
2023/03/24 07:08:32;;;;;;;5.43;4.97;;;10.80;99.90;;;;;;5038203;28;20266;-64
2023/03/24 07:10:58;;;;;;;6.20;5.60;;;10.80;99.90;;;;;;5034592;28;20190;-64
2023/03/24 07:13:24;;;;;;;5.67;5.30;;;10.80;99.90;;;;;;5051667;28;20290;-64
2023/03/24 07:15:50;;;;;;;7.50;6.73;;;10.80;99.90;;;;;;5049803;28;20253;-64
2023/03/24 07:18:18;;;;;;;9.23;8.07;;;10.80;99.90;;;;;;5032586;28;20233;-64
2023/03/24 07:20:44;;;;;;;6.90;6.40;;;10.80;99.90;;;;;;5032280;28;20175;-64
2023/03/24 07:23:10;;;;;;;6.70;6.10;;;10.80;99.90;;;;;;5052448;28;20175;-65
2023/03/24 07:25:35;;;;;;;8.87;7.40;;;10.80;99.90;;;;;;5052393;28;20575;-64
2023/03/24 07:28:01;;;;;;;5.93;5.57;;;10.80;99.90;;;;;;5034261;28;20179;-64
2023/03/24 07:30:27;;;;;;;7.30;5.87;;;10.80;99.90;;;;;;5032422;28;20292;-64
2023/03/24 07:32:55;;;;;;;6.07;5.77;;;10.80;99.90;;;;;;5033547;28;20179;-64
2023/03/24 07:35:21;;;;;;;5.97;5.57;;;10.80;99.90;;;;;;5031871;28;20180;-64
2023/03/24 07:37:47;;;;;;;6.80;6.30;;;10.80;99.90;;;;;;5047083;28;20178;-64
2023/03/24 07:40:15;;;;;;;6.47;5.77;;;10.80;99.90;;;;;;5051600;28;20210;-63
2023/03/24 07:42:42;;;;;;;8.00;5.83;;;10.80;99.90;;;;;;5050498;28;20189;-64
2023/03/24 07:45:11;;;;;;;5.80;4.93;;;10.90;99.90;;;;;;5052112;28;20545;-64
2023/03/24 07:47:38;;;;;;;7.03;6.40;;;11.20;99.90;;;;;;5039815;28;20275;-64
2023/03/24 07:50:10;;;;;;;7.07;6.60;;;11.30;99.90;;;;;;5031754;28;20231;-64
2023/03/24 07:52:37;;;;;;;9.93;9.30;;;11.40;99.90;;;;;;5033197;28;20188;-64
2023/03/24 07:55:04;;;;;;;10.13;9.40;;;11.50;99.90;;;;;;5031824;28;20183;-64
2023/03/24 07:57:29;;;;;;;7.90;7.40;;;11.60;99.90;;;;;;5041351;28;20581;-64
2023/03/24 07:59:55;;;;;;;7.63;7.13;;;11.80;99.90;;;;;;5051480;28;20202;-65
2023/03/24 08:02:21;;;;;;;8.47;7.80;;;11.90;99.90;;;;;;5043569;28;20742;-65
2023/03/24 08:04:52;;;;;;;7.90;7.40;;;11.90;99.90;;;;;;5031970;28;20641;-64
2023/03/24 08:07:18;;;;;;;6.67;6.07;;;12.00;99.90;;;;;;5043044;28;20170;-64
2023/03/24 08:09:44;;;;;;;5.00;4.70;;;12.00;99.90;;;;;;5023426;28;20203;-64
2023/03/24 08:12:10;;;;;;;5.40;4.83;;;12.00;99.90;;;;;;5032091;28;20175;-64
2023/03/24 08:14:35;;;;;;;4.90;4.50;;;12.00;99.90;;;;;;5039604;28;20210;-65
2023/03/24 08:17:01;;;;;;;6.30;5.67;;;12.00;99.90;;;;;;5051333;28;20178;-64
2023/03/24 08:19:27;;;;;;;5.50;5.10;;;12.00;99.90;;;;;;5044633;28;20716;-64
2023/03/24 08:21:52;;;;;;;5.27;4.63;;;12.20;99.90;;;;;;5031750;28;20516;-64
2023/03/24 08:24:18;;;;;;;4.90;4.40;;;12.70;99.90;;;;;;5035945;28;20206;-64
2023/03/24 08:26:45;;;;;;;4.70;4.33;;;13.50;99.90;;;;;;5051611;28;20171;-64
2023/03/24 08:29:11;;;;;;;5.77;4.20;;;14.20;99.90;;;;;;5047863;28;20202;-65
2023/03/24 08:31:37;;;;;;;6.23;4.73;;;14.90;99.90;;;;;;5031547;28;20176;-65
2023/03/24 08:34:03;;;;;;;7.37;4.60;;;15.40;99.90;;;;;;5047028;28;20221;-64
2023/03/24 08:36:29;;;;;;;10.10;4.70;;;15.30;99.90;;;;;;5051348;28;20194;-65
2023/03/24 08:38:55;;;;;;;8.47;4.77;;;14.90;99.90;;;;;;5036406;28;20250;-64
2023/03/24 08:41:33;;;;;;;7.07;4.70;;;14.50;99.90;;;;;;5031155;28;20163;-65
2023/03/24 08:44:00;;;;;;;8.23;5.53;;;14.10;99.90;;;;;;5043457;28;20174;-64
2023/03/24 08:46:26;;;;;;;8.10;5.17;;;13.90;99.90;;;;;;5031234;28;20514;-64
2023/03/24 08:48:51;;;;;;;5.57;5.07;;;13.90;99.90;;;;;;5047725;28;20248;-65
2023/03/24 08:51:18;;;;;;;6.47;5.00;;;13.80;99.90;;;;;;5035270;28;20202;-64
2023/03/24 08:53:43;;;;;;;6.63;5.93;;;13.80;99.90;;;;;;5031367;28;20178;-63
2023/03/24 08:56:09;;;;;;;7.87;6.47;;;14.10;99.90;;;;;;5031649;28;20724;-63
2023/03/24 08:58:35;;;;;;;6.80;4.67;;;14.00;99.90;;;;;;5030954;28;20204;-64
2023/03/24 09:01:01;;;;;;;9.60;5.43;;;13.80;99.90;;;;;;5042102;28;20210;-63
2023/03/24 09:03:27;;;;;;;6.10;5.20;;;13.60;99.90;;;;;;5051157;28;20194;-63
2023/03/24 09:05:57;;;;;;;6.73;5.00;;;13.50;99.90;;;;;;5040733;28;20703;-64
2023/03/24 09:08:22;;;;;;;5.27;4.73;;;13.70;99.90;;;;;;5013263;28;20297;-63
2023/03/24 09:10:50;;;;;;;6.60;5.97;;;13.70;99.90;;;;;;5034840;28;20259;-63
2023/03/24 09:13:16;;;;;;;4.70;4.30;;;13.70;99.90;;;;;;5031045;28;20167;-63
2023/03/24 09:15:46;;;;;;;4.80;4.50;;;13.70;99.90;;;;;;5031148;28;20179;-63
2023/03/24 09:18:12;;;;;;;4.03;3.73;;;14.30;99.90;;;;;;5031107;28;20168;-64
2023/03/24 09:20:37;;;;;;;5.33;4.83;;;14.70;99.90;;;;;;5037215;28;20720;-61
2023/03/24 09:23:03;;;;;;;7.13;4.07;;;15.30;99.90;;;;;;5053691;28;20174;-63
2023/03/24 09:25:28;;;;;;;7.77;7.37;;;15.50;99.90;;;;;;5049951;28;20656;-64
2023/03/24 09:27:55;;;;;;;4.27;3.90;;;15.60;99.90;;;;;;5034913;28;20171;-62
2023/03/24 09:30:21;;;;;;;3.97;3.57;;;15.50;99.90;;;;;;5037767;28;20218;-63
2023/03/24 09:32:46;;;;;;;4.23;3.90;;;15.60;99.90;;;;;;5054889;28;20171;-63
2023/03/24 09:35:13;;;;;;;4.50;4.10;;;16.00;99.90;;;;;;5052744;28;20174;-65
2023/03/24 09:37:41;;;;;;;4.20;3.90;;;16.10;99.90;;;;;;5054674;28;20171;-63
2023/03/24 09:40:14;;;;;;;4.60;4.20;;;15.90;99.90;;;;;;5053246;28;20225;-63
2023/03/24 09:42:40;;;;;;;4.70;4.40;;;15.70;99.90;;;;;;5040350;28;20711;-64
2023/03/24 09:45:15;;;;;;;7.03;4.23;;;15.70;99.90;;;;;;5045577;28;20199;-64
2023/03/24 09:48:36;;;;;;;3.73;3.53;;;16.10;99.90;;;;;;5035678;28;20209;-63
2023/03/24 09:51:04;;;;;;;5.27;4.77;;;16.40;99.90;;;;;;4988998;28;20406;-64
2023/03/24 09:53:44;;;;;;;9.03;3.90;;;16.60;99.90;;;;;;5047625;28;20167;-63
2023/03/24 09:56:15;;;;;;;4.00;3.70;;;17.00;99.90;;;;;;5016699;28;20187;-63
2023/03/24 09:58:44;;;;;;;4.20;3.80;;;17.60;99.90;;;;;;5037073;28;20209;-63
2023/03/24 10:01:13;;;;;;;5.00;4.03;;;17.80;99.90;;;;;;5054004;28;20182;-63
2023/03/24 10:03:39;;;;;;;4.17;3.77;;;18.00;99.90;;;;;;5051746;28;20166;-63
2023/03/24 10:06:32;;;;;;;4.07;3.73;;;17.70;99.90;;;;;;5034257;28;20178;-63
2023/03/24 10:09:23;;;;;;;4.20;3.90;;;17.20;99.90;;;;;;5053713;28;20737;-64
2023/03/24 10:12:04;;;;;;;5.40;3.73;;;17.10;99.90;;;;;;5047906;28;20179;-63
2023/03/24 10:14:42;;;;;;;6.63;4.13;;;17.10;99.90;;;;;;5033983;28;20176;-64
2023/03/24 10:17:32;;;;;;;8.40;3.60;;;16.80;99.90;;;;;;5041769;28;20183;-63
2023/03/24 10:20:15;;;;;;;4.47;4.07;;;16.30;99.90;;;;;;5037665;28;20230;-63
2023/03/24 10:23:03;;;;;;;5.50;3.90;;;16.50;99.90;;;;;;5046048;28;20655;-63
2023/03/24 10:25:37;;;;;;;4.17;3.77;;;17.00;99.90;;;;;;5053847;28;20655;-63
2023/03/24 10:28:17;;;;;;;5.37;4.20;;;17.20;99.90;;;;;;5039268;28;20179;-63
2023/03/24 10:30:45;;;;;;;6.07;5.60;;;16.70;99.90;;;;;;5033451;28;20571;-63
2023/03/24 10:33:12;;;;;;;5.53;4.10;;;16.50;99.90;;;;;;5046892;28;20595;-63
2023/03/24 10:35:45;;;;;;;5.07;4.40;;;16.20;99.90;;;;;;5053565;28;20174;-63
2023/03/24 10:38:20;;;;;;;5.17;4.47;;;15.90;99.90;;;;;;5039249;28;20199;-62
2023/03/24 10:40:46;;;;;;;4.53;4.00;;;16.00;99.90;;;;;;5033576;28;20216;-64
2023/03/24 10:43:14;;;;;;;4.00;3.70;;;16.00;99.90;;;;;;5047078;28;20175;-63
2023/03/24 10:45:43;;;;;;;6.80;4.47;;;16.50;99.90;;;;;;5041936;28;20172;-63
2023/03/24 10:48:11;;;;;;;6.30;4.57;;;17.00;99.90;;;;;;5045712;28;20186;-64
2023/03/24 10:50:42;;;;;;;4.47;4.13;;;17.50;99.90;;;;;;5042456;28;20203;-64
2023/03/24 10:53:18;;;;;;;3.83;3.63;;;17.90;99.90;;;;;;5022915;28;20175;-64
2023/03/24 10:55:46;;;;;;;6.87;4.77;;;17.70;99.90;;;;;;5033720;28;20179;-64
2023/03/24 10:58:42;;;;;;;5.20;4.73;;;17.10;99.90;;;;;;5033339;28;20650;-64
2023/03/24 11:01:22;;;;;;;4.13;3.80;;;16.60;99.90;;;;;;5036318;28;20657;-64
2023/03/24 11:03:49;;;;;;;3.87;3.67;;;16.00;99.90;;;;;;5052973;28;20197;-64
2023/03/24 11:06:20;;;;;;;6.40;4.27;;;15.70;99.90;;;;;;5040327;28;20581;-64
2023/03/24 11:08:46;;;;;;;4.27;4.07;;;15.70;99.90;;;;;;5033012;28;20222;-63
2023/03/24 11:11:23;;;;;;;4.80;4.47;;;16.00;99.90;;;;;;5033048;28;20724;-63
2023/03/24 11:14:00;;;;;;;8.97;4.10;;;16.10;99.90;;;;;;5033069;28;20260;-63
2023/03/24 11:16:41;;;;;;;4.17;3.87;;;16.50;99.90;;;;;;5045960;28;20546;-64
2023/03/24 11:19:21;;;;;;;5.40;4.10;;;17.00;99.90;;;;;;5052187;28;20206;-64
2023/03/24 11:21:48;;;;;;;4.67;3.90;;;17.50;99.90;;;;;;5036996;28;20175;-65
2023/03/24 11:24:16;;;;;;;4.00;3.67;;;18.00;99.90;;;;;;5030888;28;20527;-65
2023/03/24 11:27:00;;;;;;;4.43;4.07;;;18.40;99.90;;;;;;5046491;28;20179;-65
2023/03/24 11:29:29;;;;;;;3.50;3.30;;;18.50;99.90;;;;;;5052087;28;20205;-64
2023/03/24 11:32:00;;;;;;;3.50;3.30;;;18.40;99.90;;;;;;5036790;28;20270;-64
2023/03/24 11:34:33;;;;;;;4.50;4.10;;;18.30;99.90;;;;;;5032767;28;20676;-63
2023/03/24 11:37:20;;;;;;;7.20;3.40;;;18.50;99.90;;;;;;5047383;28;20179;-64
2023/03/24 11:40:19;;;;;;;3.63;3.33;;;18.20;99.90;;;;;;5038298;28;20253;-64
2023/03/24 11:42:46;;;;;;;3.80;3.53;;;17.70;99.90;;;;;;5032534;28;20168;-64
2023/03/24 11:45:33;;;;;;;4.23;3.93;;;17.90;99.90;;;;;;5048000;28;20253;-63
2023/03/24 11:48:00;;;;;;;5.20;4.10;;;18.20;99.90;;;;;;5052200;28;20171;-64
2023/03/24 11:50:29;;;;;;;4.90;3.73;;;18.30;99.90;;;;;;5033903;28;20204;-64
2023/03/24 11:53:06;;;;;;;3.63;3.37;;;17.90;99.90;;;;;;5014332;28;20199;-65
2023/03/24 11:55:35;;;;;;;6.40;3.97;;;17.70;99.90;;;;;;5049964;28;20186;-64
2023/03/24 11:58:35;;;;;;;3.50;3.30;;;17.80;99.90;;;;;;5038236;28;20211;-64
2023/03/24 12:01:21;;;;;;;4.00;3.73;;;17.60;99.90;;;;;;4994420;28;20184;-65
2023/03/24 12:03:52;;;;;;;3.40;3.20;;;17.90;99.90;;;;;;5044648;28;20266;-64
2023/03/24 12:06:50;;;;;;;6.30;4.03;;;18.00;99.90;;;;;;5044399;28;20168;-64
2023/03/24 12:09:30;;;;;;;6.23;3.87;;;17.90;99.90;;;;;;5031510;28;20597;-64
2023/03/24 12:12:20;;;;;;;5.83;4.40;;;17.50;99.90;;;;;;5043948;28;20174;-64
2023/03/24 12:15:12;;;;;;;4.10;3.80;;;17.10;99.90;;;;;;5051876;28;20209;-64
2023/03/24 12:17:44;;;;;;;4.53;4.03;;;17.30;99.90;;;;;;5034203;28;20262;-64
2023/03/24 12:20:28;;;;;;;3.50;3.20;;;18.00;99.90;;;;;;5031144;28;20317;-65
2023/03/24 12:23:09;;;;;;;4.63;3.50;;;18.70;99.90;;;;;;5050363;28;20183;-64
2023/03/24 12:26:04;;;;;;;7.50;3.70;;;19.30;99.90;;;;;;5035666;28;20176;-63
2023/03/24 12:28:48;;;;;;;4.17;3.37;;;19.10;99.90;;;;;;5018778;28;20191;-64
2023/03/24 12:31:31;;;;;;;3.93;3.33;;;18.70;99.90;;;;;;5029305;28;20210;-64
2023/03/24 12:34:32;;;;;;;3.90;3.70;;;18.30;99.90;;;;;;5031400;28;20198;-63
2023/03/24 12:37:24;;;;;;;3.40;3.20;;;17.80;99.90;;;;;;5026570;28;20183;-63
2023/03/24 12:40:30;;;;;;;6.70;3.80;;;17.20;99.90;;;;;;5030719;28;20199;-64
2023/03/24 12:43:25;;;;;;;7.40;3.60;;;16.60;99.90;;;;;;5030347;28;20628;-64
2023/03/24 12:45:57;;;;;;;3.37;3.17;;;17.10;99.90;;;;;;5020691;28;20759;-64
2023/03/24 12:49:01;;;;;;;5.43;3.40;;;17.80;99.90;;;;;;5031334;28;20191;-65
2023/03/24 12:51:53;;;;;;;5.40;3.50;;;18.30;99.90;;;;;;5031055;28;20545;-65
2023/03/24 12:54:44;;;;;;;3.20;2.90;;;18.70;99.90;;;;;;5015911;28;20187;-64
2023/03/24 12:57:16;;;;;;;4.47;3.20;;;19.10;99.90;;;;;;5028670;28;20237;-64
2023/03/24 12:59:50;;;;;;;4.03;3.37;;;19.40;99.90;;;;;;5031621;28;20616;-64
2023/03/24 13:02:31;;;;;;;5.90;3.50;;;19.60;99.90;;;;;;5035631;28;20190;-64
2023/03/24 13:05:04;;;;;;;3.17;2.93;;;19.30;99.90;;;;;;4998477;28;20641;-64
2023/03/24 13:07:36;;;;;;;3.40;3.17;;;19.00;99.90;;;;;;5041314;28;20383;-64
2023/03/24 13:10:24;;;;;;;5.53;3.77;;;18.70;99.90;;;;;;5034207;28;20224;-65
2023/03/24 13:13:01;;;;;;;4.40;3.33;;;18.30;99.90;;;;;;5050852;28;20418;-63
2023/03/24 13:15:37;;;;;;;3.77;3.43;;;18.20;99.90;;;;;;5043509;28;20570;-64